createdAt,value
2019-03-30T00:01:41.485Z,75.36
2019-03-30T00:04:11.337Z,75.90
2019-03-30T00:06:41.302Z,76.06
2019-03-30T00:09:11.370Z,75.99
2019-03-30T00:11:41.463Z,75.61
2019-03-30T00:14:11.501Z,75.90
2019-03-30T00:16:41.272Z,75.64
2019-03-30T00:19:11.082Z,75.61
2019-03-30T00:21:40.958Z,75.82
2019-03-30T00:24:10.859Z,76.48
2019-03-30T00:26:40.652Z,76.48
2019-03-30T00:29:10.464Z,76.67
2019-03-30T00:31:40.356Z,76.75
2019-03-30T00:34:10.365Z,77.10
2019-03-30T00:36:40.243Z,77.28
2019-03-30T00:39:10.559Z,77.36
2019-03-30T00:41:40.429Z,77.55
2019-03-30T00:44:10.444Z,77.54
2019-03-30T00:46:40.320Z,77.26
2019-03-30T00:49:10.224Z,77.06
2019-03-30T00:51:40.005Z,76.93
2019-03-30T00:54:09.999Z,76.59
2019-03-30T00:56:39.893Z,76.00
2019-03-30T00:59:09.686Z,75.72
2019-03-30T01:01:39.488Z,76.10
2019-03-30T01:04:09.334Z,76.46
2019-03-30T01:06:39.214Z,76.21
2019-03-30T01:09:09.902Z,76.32
2019-03-30T01:11:39.992Z,75.87
2019-03-30T01:14:09.806Z,75.62
2019-03-30T01:16:39.588Z,75.47
2019-03-30T01:19:09.404Z,75.52
2019-03-30T01:21:39.241Z,75.93
2019-03-30T01:24:09.078Z,75.70
2019-03-30T01:26:38.944Z,75.52
2019-03-30T01:29:08.865Z,75.73
2019-03-30T01:31:38.665Z,75.89
2019-03-30T01:34:08.455Z,76.27
2019-03-30T01:36:38.370Z,76.32
2019-03-30T01:39:09.301Z,76.33
2019-03-30T01:41:39.224Z,76.28
2019-03-30T01:44:09.109Z,76.05
2019-03-30T01:46:39.125Z,76.08
2019-03-30T01:49:09.020Z,76.40
2019-03-30T01:51:38.936Z,76.32
2019-03-30T01:54:08.878Z,76.61
2019-03-30T01:56:38.704Z,76.44
2019-03-30T01:59:08.483Z,76.38
2019-03-30T02:01:38.291Z,76.24
2019-03-30T02:04:08.415Z,76.30
2019-03-30T02:06:38.437Z,76.13
2019-03-30T02:09:08.443Z,76.11
2019-03-30T02:11:38.459Z,75.99
2019-03-30T02:14:08.419Z,75.72
2019-03-30T02:16:38.238Z,75.69
2019-03-30T02:19:08.525Z,76.01
2019-03-30T02:21:38.527Z,76.02
2019-03-30T02:24:08.423Z,75.90
2019-03-30T02:26:38.340Z,76.91
2019-03-30T02:29:08.128Z,76.51
2019-03-30T02:31:37.942Z,76.43
2019-03-30T02:34:07.830Z,76.34
2019-03-30T02:36:37.727Z,76.42
2019-03-30T02:39:08.467Z,76.63
2019-03-30T02:41:38.261Z,76.44
2019-03-30T02:44:08.038Z,76.20
2019-03-30T02:46:37.824Z,76.22
2019-03-30T02:49:07.900Z,76.44
2019-03-30T02:51:37.919Z,76.67
2019-03-30T02:54:07.784Z,76.66
2019-03-30T02:56:37.817Z,76.57
2019-03-30T02:59:07.594Z,76.69
2019-03-30T03:01:37.512Z,76.54
2019-03-30T03:04:07.285Z,76.59
2019-03-30T03:06:37.192Z,76.66
2019-03-30T03:09:09.362Z,76.56
2019-03-30T03:11:39.279Z,76.50
2019-03-30T03:14:09.073Z,76.48
2019-03-30T03:16:39.068Z,76.63
2019-03-30T03:19:08.966Z,76.73
2019-03-30T03:21:38.862Z,76.82
2019-03-30T03:24:08.634Z,76.93
2019-03-30T03:26:38.548Z,76.84
2019-03-30T03:29:08.425Z,76.87
2019-03-30T03:31:38.248Z,77.22
2019-03-30T03:34:08.023Z,77.05
2019-03-30T03:36:37.939Z,76.81
2019-03-30T03:39:08.150Z,76.74
2019-03-30T03:41:38.158Z,77.08
2019-03-30T03:44:07.924Z,77.45
2019-03-30T03:46:37.773Z,77.32
2019-03-30T03:49:07.753Z,77.16
2019-03-30T03:51:38.060Z,78.24
2019-03-30T03:54:08.051Z,78.74
2019-03-30T03:56:39.937Z,78.89
2019-03-30T03:59:13.249Z,78.77
2019-03-30T04:01:44.451Z,78.76
2019-03-30T04:04:16.129Z,78.35
2019-03-30T04:06:48.183Z,77.61
2019-03-30T04:09:20.133Z,77.15
2019-03-30T04:11:51.516Z,76.74
2019-03-30T04:14:23.733Z,76.79
2019-03-30T04:16:53.732Z,77.01
2019-03-30T04:19:23.710Z,77.56
2019-03-30T04:21:53.623Z,78.61
2019-03-30T04:24:23.421Z,78.99
2019-03-30T04:26:53.199Z,78.49
2019-03-30T04:29:22.996Z,78.50
2019-03-30T04:31:52.904Z,78.46
2019-03-30T04:34:22.787Z,78.20
2019-03-30T04:36:52.658Z,78.19
2019-03-30T04:39:22.553Z,78.00
2019-03-30T04:41:52.548Z,77.93
2019-03-30T04:44:22.348Z,77.35
2019-03-30T04:46:52.146Z,77.00
2019-03-30T04:49:22.038Z,76.80
2019-03-30T04:51:57.867Z,76.86
2019-03-30T04:54:23.552Z,76.76
2019-03-30T04:56:53.375Z,76.86
2019-03-30T04:59:23.360Z,76.63
2019-03-30T05:01:53.237Z,76.36
2019-03-30T05:04:23.048Z,76.75
2019-03-30T05:06:52.836Z,77.16
2019-03-30T05:09:22.633Z,76.84
2019-03-30T05:11:52.517Z,76.89
2019-03-30T05:14:22.433Z,77.36
2019-03-30T05:16:52.226Z,77.21
2019-03-30T05:19:22.020Z,77.29
2019-03-30T05:21:52.005Z,77.38
2019-03-30T05:24:21.932Z,77.60
2019-03-30T05:26:51.770Z,77.59
2019-03-30T05:29:21.673Z,77.52
2019-03-30T05:31:51.561Z,78.08
2019-03-30T05:34:21.549Z,77.92
2019-03-30T05:36:51.388Z,78.29
2019-03-30T05:39:21.397Z,77.99
2019-03-30T05:41:51.277Z,77.88
2019-03-30T05:44:21.094Z,78.66
2019-03-30T05:46:50.855Z,79.32
2019-03-30T05:49:20.848Z,79.60
2019-03-30T05:51:50.716Z,80.39
2019-03-30T05:54:20.524Z,81.02
2019-03-30T05:56:50.328Z,81.24
2019-03-30T05:59:20.229Z,81.70
2019-03-30T06:01:50.029Z,82.52
2019-03-30T06:04:19.857Z,82.47
2019-03-30T06:06:49.626Z,82.81
2019-03-30T06:09:19.523Z,83.68
2019-03-30T06:11:49.293Z,83.37
2019-03-30T06:14:19.312Z,82.13
2019-03-30T06:16:49.179Z,81.32
2019-03-30T06:19:18.976Z,80.29
2019-03-30T06:21:48.841Z,79.38
2019-03-30T06:24:18.637Z,79.19
2019-03-30T06:26:48.515Z,79.59
2019-03-30T06:29:18.409Z,80.29
2019-03-30T06:31:48.285Z,80.18
2019-03-30T06:34:18.082Z,78.91
2019-03-30T06:36:47.979Z,77.79
2019-03-30T06:39:17.880Z,76.41
2019-03-30T06:41:47.665Z,77.08
2019-03-30T06:44:17.503Z,78.02
2019-03-30T06:46:47.379Z,77.44
2019-03-30T06:49:17.197Z,77.44
2019-03-30T06:51:47.053Z,77.90
2019-03-30T06:54:17.196Z,77.20
2019-03-30T06:56:47.089Z,76.12
2019-03-30T06:59:17.127Z,73.40
2019-03-30T07:01:47.220Z,68.20
2019-03-30T07:04:17.033Z,58.20
2019-03-30T07:06:47.020Z,48.45
2019-03-30T07:09:18.907Z,42.14
2019-03-30T07:11:50.286Z,38.89
2019-03-30T07:14:21.853Z,34.93
2019-03-30T07:16:54.706Z,33.21
2019-03-30T07:19:28.027Z,29.67
2019-03-30T07:21:58.489Z,26.57
2019-03-30T07:24:28.928Z,24.78
2019-03-30T07:26:59.006Z,23.08
2019-03-30T07:29:29.009Z,21.61
2019-03-30T07:31:59.278Z,19.67
2019-03-30T07:34:29.367Z,22.46
2019-03-30T07:36:59.238Z,23.26
2019-03-30T07:39:29.169Z,23.52
2019-03-30T07:41:59.095Z,23.79
2019-03-30T07:44:30.020Z,23.40
2019-03-30T07:46:59.939Z,21.42
2019-03-30T07:49:29.731Z,19.92
2019-03-30T07:51:59.616Z,19.77
2019-03-30T07:54:29.410Z,19.59
2019-03-30T07:57:06.198Z,19.49
2019-03-30T07:59:30.843Z,18.76
2019-03-30T08:02:00.757Z,18.05
2019-03-30T08:04:30.536Z,17.12
2019-03-30T08:07:00.319Z,17.46
2019-03-30T08:09:30.099Z,18.72
2019-03-30T08:12:00.101Z,17.21
2019-03-30T08:14:29.987Z,15.78
2019-03-30T08:16:59.797Z,15.73
2019-03-30T08:19:29.564Z,15.10
2019-03-30T08:21:59.466Z,14.55
2019-03-30T08:24:29.342Z,14.60
2019-03-30T08:26:59.143Z,14.46
2019-03-30T08:29:29.019Z,16.25
2019-03-30T08:31:58.819Z,18.46
2019-03-30T08:34:28.606Z,22.60
2019-03-30T08:36:59.445Z,25.79
2019-03-30T08:39:29.298Z,30.57
2019-03-30T08:41:59.126Z,35.19
2019-03-30T08:44:28.916Z,36.71
2019-03-30T08:46:58.707Z,38.20
2019-03-30T08:49:28.587Z,39.47
2019-03-30T08:51:58.591Z,39.87
2019-03-30T08:54:28.378Z,40.84
2019-03-30T08:56:58.216Z,41.92
2019-03-30T08:59:28.000Z,41.58
2019-03-30T09:01:57.792Z,42.29
2019-03-30T09:04:27.570Z,39.90
2019-03-30T09:06:57.585Z,41.44
2019-03-30T09:09:27.360Z,42.77
2019-03-30T09:11:57.170Z,42.30
2019-03-30T09:14:26.954Z,42.62
2019-03-30T09:16:56.756Z,41.27
2019-03-30T09:19:26.541Z,42.19
2019-03-30T09:21:56.470Z,40.12
2019-03-30T09:24:26.359Z,40.67
2019-03-30T09:26:56.262Z,40.45
2019-03-30T09:29:26.137Z,39.76
2019-03-30T09:31:56.116Z,39.29
2019-03-30T09:34:26.137Z,38.71
2019-03-30T09:36:56.312Z,37.92
2019-03-30T09:39:26.441Z,39.19
2019-03-30T09:41:56.309Z,38.63
2019-03-30T09:44:26.101Z,36.97
2019-03-30T09:46:56.050Z,35.93
2019-03-30T09:49:25.838Z,36.56
2019-03-30T09:51:55.840Z,36.34
2019-03-30T09:54:25.684Z,36.30
2019-03-30T09:56:55.526Z,36.14
2019-03-30T09:59:25.321Z,34.41
2019-03-30T10:01:55.087Z,33.87
2019-03-30T10:04:24.915Z,33.45
2019-03-30T10:06:54.901Z,32.87
2019-03-30T10:09:24.818Z,33.53
2019-03-30T10:11:54.666Z,34.11
2019-03-30T10:14:24.628Z,33.70
2019-03-30T10:16:54.819Z,33.70
2019-03-30T10:19:27.785Z,34.07
2019-03-30T10:21:56.642Z,32.87
2019-03-30T10:24:37.565Z,33.31
2019-03-30T10:26:58.391Z,33.35
2019-03-30T10:29:28.385Z,32.04
2019-03-30T10:32:00.091Z,31.85
2019-03-30T10:34:30.368Z,31.44
2019-03-30T10:37:00.322Z,29.77
2019-03-30T10:39:30.489Z,30.09
2019-03-30T10:42:00.671Z,30.32
2019-03-30T10:44:30.578Z,31.45
2019-03-30T10:47:00.770Z,30.71
2019-03-30T10:49:30.828Z,29.58
2019-03-30T10:52:00.957Z,29.27
2019-03-30T10:54:30.866Z,28.80
2019-03-30T10:57:00.965Z,29.00
2019-03-30T10:59:31.007Z,28.32
2019-03-30T11:02:00.993Z,28.75
2019-03-30T11:04:30.841Z,27.77
2019-03-30T11:07:00.966Z,27.25
2019-03-30T11:09:31.205Z,27.45
2019-03-30T11:12:01.345Z,27.15
2019-03-30T11:14:31.260Z,27.69
2019-03-30T11:17:01.222Z,27.24
2019-03-30T11:19:31.383Z,27.80
2019-03-30T11:22:03.406Z,27.80
2019-03-30T11:24:33.910Z,26.95
2019-03-30T11:27:03.957Z,27.07
2019-03-30T11:29:34.024Z,26.94
2019-03-30T11:32:04.029Z,27.01
2019-03-30T11:34:34.286Z,26.87
2019-03-30T11:37:04.610Z,26.36
2019-03-30T11:39:35.131Z,25.54
2019-03-30T11:42:05.384Z,24.92
2019-03-30T11:44:35.538Z,27.10
2019-03-30T11:47:05.321Z,25.28
2019-03-30T11:49:35.162Z,25.07
2019-03-30T11:52:04.940Z,23.55
2019-03-30T11:54:34.757Z,23.26
2019-03-30T11:57:04.570Z,24.09
2019-03-30T11:59:34.375Z,23.00
2019-03-30T12:02:04.253Z,21.94
2019-03-30T12:04:34.094Z,22.43
2019-03-30T12:07:03.907Z,23.50
2019-03-30T12:09:33.724Z,22.63
2019-03-30T12:12:03.508Z,23.17
2019-03-30T12:14:33.319Z,23.73
2019-03-30T12:17:03.147Z,25.82
2019-03-30T12:19:32.900Z,25.94
2019-03-30T12:22:02.697Z,25.56
2019-03-30T12:24:32.514Z,24.70
2019-03-30T12:27:02.302Z,25.37
2019-03-30T12:29:32.234Z,24.21
2019-03-30T12:32:02.014Z,24.09
2019-03-30T12:34:31.841Z,24.65
2019-03-30T12:37:01.831Z,26.27
2019-03-30T12:39:31.697Z,24.65
2019-03-30T12:42:01.797Z,23.59
2019-03-30T12:44:31.824Z,24.06
2019-03-30T12:47:01.736Z,24.12
2019-03-30T12:49:31.503Z,24.29
2019-03-30T12:52:01.319Z,24.54
2019-03-30T12:54:31.210Z,25.34
2019-03-30T12:57:01.110Z,24.79
2019-03-30T12:59:31.028Z,24.96
2019-03-30T13:02:00.847Z,25.40
2019-03-30T13:04:30.630Z,24.80
2019-03-30T13:07:00.561Z,25.22
2019-03-30T13:09:30.642Z,23.72
2019-03-30T13:12:00.567Z,23.94
2019-03-30T13:14:30.343Z,22.83
2019-03-30T13:17:00.148Z,24.03
2019-03-30T13:19:29.955Z,21.74
2019-03-30T13:21:59.758Z,21.89
2019-03-30T13:24:29.524Z,22.18
2019-03-30T13:26:59.442Z,23.10
2019-03-30T13:29:29.332Z,22.13
2019-03-30T13:31:59.146Z,21.81
2019-03-30T13:34:29.039Z,21.64
2019-03-30T13:36:58.969Z,21.05
2019-03-30T13:39:28.743Z,20.81
2019-03-30T13:41:58.549Z,21.12
2019-03-30T13:44:28.450Z,20.63
2019-03-30T13:46:58.357Z,20.19
2019-03-30T13:49:29.794Z,21.58
2019-03-30T13:51:59.714Z,21.91
2019-03-30T13:54:29.506Z,21.52
2019-03-30T13:56:59.621Z,20.67
2019-03-30T13:59:29.439Z,20.54
2019-03-30T14:01:59.350Z,19.95
2019-03-30T14:04:29.238Z,20.44
2019-03-30T14:06:59.143Z,20.34
2019-03-30T14:09:28.933Z,20.34
2019-03-30T14:11:58.814Z,20.93
2019-03-30T14:14:28.686Z,20.74
2019-03-30T14:16:58.601Z,20.27
2019-03-30T14:19:28.471Z,20.42
2019-03-30T14:21:58.279Z,20.49
2019-03-30T14:24:28.067Z,21.16
2019-03-30T14:26:57.864Z,21.20
2019-03-30T14:29:27.736Z,21.22
2019-03-30T14:31:57.533Z,20.90
2019-03-30T14:34:27.313Z,20.29
2019-03-30T14:36:57.133Z,20.52
2019-03-30T14:39:27.009Z,21.19
2019-03-30T14:41:56.819Z,21.79
2019-03-30T14:44:26.807Z,21.73
2019-03-30T14:46:56.688Z,21.67
2019-03-30T14:49:26.592Z,22.31
2019-03-30T14:51:56.366Z,22.29
2019-03-30T14:54:26.313Z,22.39
2019-03-30T14:56:56.111Z,22.00
2019-03-30T14:59:26.071Z,21.78
2019-03-30T15:01:55.930Z,20.26
2019-03-30T15:04:25.746Z,20.10
2019-03-30T15:06:55.640Z,20.46
2019-03-30T15:09:25.563Z,21.03
2019-03-30T15:11:55.362Z,20.72
2019-03-30T15:14:25.194Z,19.87
2019-03-30T15:16:54.969Z,19.89
2019-03-30T15:19:24.786Z,19.94
2019-03-30T15:21:54.666Z,20.18
2019-03-30T15:24:24.689Z,19.93
2019-03-30T15:27:00.061Z,20.54
2019-03-30T15:29:26.113Z,20.27
2019-03-30T15:31:55.957Z,19.49
2019-03-30T15:34:26.349Z,18.86
2019-03-30T15:36:56.124Z,18.87
2019-03-30T15:39:25.934Z,18.80
2019-03-30T15:41:55.822Z,18.28
2019-03-30T15:44:25.864Z,18.32
2019-03-30T15:46:55.716Z,18.49
2019-03-30T15:49:25.656Z,18.28
2019-03-30T15:51:55.453Z,18.87
2019-03-30T15:54:25.262Z,18.86
2019-03-30T15:56:55.170Z,19.21
2019-03-30T15:59:25.081Z,19.87
2019-03-30T16:01:54.863Z,19.81
2019-03-30T16:04:24.713Z,19.42
2019-03-30T16:06:54.653Z,19.84
2019-03-30T16:09:24.455Z,19.85
2019-03-30T16:11:54.439Z,19.81
2019-03-30T16:14:24.355Z,19.73
2019-03-30T16:16:54.166Z,19.19
2019-03-30T16:19:23.978Z,18.89
2019-03-30T16:21:53.861Z,19.83
2019-03-30T16:24:23.786Z,20.31
2019-03-30T16:26:53.769Z,20.08
2019-03-30T16:29:23.670Z,20.22
2019-03-30T16:31:53.548Z,19.94
2019-03-30T16:34:23.469Z,19.86
2019-03-30T16:36:53.345Z,19.69
2019-03-30T16:39:23.258Z,20.47
2019-03-30T16:41:53.246Z,20.88
2019-03-30T16:44:23.056Z,20.57
2019-03-30T16:46:53.034Z,20.61
2019-03-30T16:49:22.967Z,21.07
2019-03-30T16:51:52.846Z,21.35
2019-03-30T16:54:22.653Z,21.79
2019-03-30T16:56:52.440Z,22.22
2019-03-30T16:59:22.277Z,22.81
2019-03-30T17:01:52.078Z,22.52
2019-03-30T17:04:21.988Z,22.29
2019-03-30T17:06:51.882Z,22.45
2019-03-30T17:09:21.882Z,24.21
2019-03-30T17:11:51.768Z,24.35
2019-03-30T17:14:21.693Z,24.63
2019-03-30T17:16:51.575Z,24.85
2019-03-30T17:19:21.488Z,25.00
2019-03-30T17:21:51.388Z,25.64
2019-03-30T17:24:21.213Z,26.06
2019-03-30T17:26:51.022Z,26.22
2019-03-30T17:29:20.827Z,26.88
2019-03-30T17:31:50.608Z,27.77
2019-03-30T17:34:20.529Z,28.76
2019-03-30T17:36:50.517Z,28.30
2019-03-30T17:39:20.456Z,29.01
2019-03-30T17:41:50.243Z,29.67
2019-03-30T17:44:20.068Z,30.78
2019-03-30T17:46:50.054Z,31.11
2019-03-30T17:49:19.872Z,31.48
2019-03-30T17:51:49.794Z,31.94
2019-03-30T17:54:19.591Z,32.29
2019-03-30T17:56:49.368Z,31.97
2019-03-30T17:59:19.204Z,32.69
2019-03-30T18:01:49.007Z,32.81
2019-03-30T18:04:18.781Z,32.40
2019-03-30T18:06:48.590Z,34.37
2019-03-30T18:09:18.369Z,35.82
2019-03-30T18:11:48.279Z,37.36
2019-03-30T18:14:18.157Z,37.71
2019-03-30T18:16:48.057Z,37.62
2019-03-30T18:19:18.124Z,38.72
2019-03-30T18:21:47.926Z,39.05
2019-03-30T18:24:18.015Z,38.50
2019-03-30T18:26:47.929Z,39.02
2019-03-30T18:29:17.811Z,39.69
2019-03-30T18:31:47.930Z,40.20
2019-03-30T18:34:17.750Z,40.84
2019-03-30T18:36:49.653Z,41.29
2019-03-30T18:39:19.520Z,41.49
2019-03-30T18:41:49.539Z,42.75
2019-03-30T18:44:19.419Z,44.48
2019-03-30T18:46:49.243Z,46.45
2019-03-30T18:49:19.018Z,48.39
2019-03-30T18:51:49.939Z,49.14
2019-03-30T18:54:20.509Z,49.77
2019-03-30T18:56:50.317Z,50.30
2019-03-30T18:59:20.125Z,50.78
2019-03-30T19:01:49.942Z,50.83
2019-03-30T19:04:19.826Z,51.11
2019-03-30T19:06:49.606Z,51.42
2019-03-30T19:09:19.378Z,51.76
2019-03-30T19:11:49.286Z,52.50
2019-03-30T19:14:19.072Z,52.78
2019-03-30T19:16:48.878Z,53.45
2019-03-30T19:19:18.654Z,53.53
2019-03-30T19:21:48.572Z,53.88
2019-03-30T19:24:18.434Z,53.96
2019-03-30T19:26:48.463Z,54.20
2019-03-30T19:29:18.249Z,54.64
2019-03-30T19:31:48.364Z,54.73
2019-03-30T19:34:18.249Z,54.97
2019-03-30T19:36:48.161Z,54.86
2019-03-30T19:39:18.271Z,54.99
2019-03-30T19:41:48.196Z,54.95
2019-03-30T19:44:18.178Z,54.83
2019-03-30T19:46:48.090Z,55.25
2019-03-30T19:49:18.340Z,55.40
2019-03-30T19:51:48.354Z,55.81
2019-03-30T19:54:18.174Z,55.77
2019-03-30T19:56:48.181Z,56.12
2019-03-30T19:59:18.220Z,56.48
2019-03-30T20:01:48.222Z,56.82
2019-03-30T20:04:18.645Z,57.13
2019-03-30T20:06:48.825Z,57.04
2019-03-30T20:09:20.870Z,57.52
2019-03-30T20:11:50.584Z,57.87
2019-03-30T20:14:20.535Z,58.01
2019-03-30T20:16:50.446Z,58.08
2019-03-30T20:19:20.427Z,58.22
2019-03-30T20:21:50.569Z,58.49
2019-03-30T20:24:20.496Z,58.66
2019-03-30T20:26:50.396Z,58.68
2019-03-30T20:29:25.488Z,58.85
2019-03-30T20:31:52.128Z,59.07
2019-03-30T20:34:22.211Z,59.57
2019-03-30T20:36:52.111Z,59.50
2019-03-30T20:39:21.957Z,59.92
2019-03-30T20:41:52.027Z,59.88
2019-03-30T20:44:21.811Z,59.92
2019-03-30T20:46:51.716Z,59.86
2019-03-30T20:49:21.507Z,59.85
2019-03-30T20:51:52.016Z,60.03
2019-03-30T20:54:21.894Z,60.22
2019-03-30T20:56:51.792Z,60.63
2019-03-30T20:59:21.706Z,60.86
2019-03-30T21:01:51.529Z,61.17
2019-03-30T21:04:21.324Z,61.60
2019-03-30T21:06:51.231Z,62.01
2019-03-30T21:09:21.233Z,62.62
2019-03-30T21:11:51.113Z,62.90
2019-03-30T21:14:20.932Z,63.28
2019-03-30T21:16:50.713Z,63.65
2019-03-30T21:19:20.519Z,63.50
2019-03-30T21:21:50.298Z,63.93
2019-03-30T21:24:20.116Z,64.20
2019-03-30T21:26:49.984Z,64.75
2019-03-30T21:29:19.818Z,64.60
2019-03-30T21:31:49.607Z,64.77
2019-03-30T21:34:19.519Z,64.93
2019-03-30T21:36:49.296Z,65.12
2019-03-30T21:39:19.141Z,65.20
2019-03-30T21:41:49.004Z,65.17
2019-03-30T21:44:22.285Z,64.86
2019-03-30T21:46:50.293Z,64.54
2019-03-30T21:49:20.187Z,64.48
2019-03-30T21:51:49.995Z,64.62
2019-03-30T21:54:19.804Z,64.82
2019-03-30T21:56:49.593Z,65.12
2019-03-30T21:59:19.430Z,64.61
2019-03-30T22:01:49.222Z,64.68
2019-03-30T22:04:19.245Z,64.55
2019-03-30T22:06:49.247Z,64.61
2019-03-30T22:09:19.043Z,64.70
2019-03-30T22:11:48.852Z,64.65
2019-03-30T22:14:18.785Z,64.69
2019-03-30T22:16:48.685Z,64.81
2019-03-30T22:19:20.417Z,65.11
2019-03-30T22:21:50.305Z,65.18
2019-03-30T22:24:20.193Z,65.35
2019-03-30T22:26:50.179Z,65.39
2019-03-30T22:29:20.087Z,65.37
2019-03-30T22:31:50.004Z,65.42
2019-03-30T22:34:19.866Z,65.46
2019-03-30T22:36:49.781Z,65.42
2019-03-30T22:39:19.696Z,65.52
2019-03-30T22:41:49.562Z,65.54
2019-03-30T22:44:19.377Z,66.13
2019-03-30T22:46:49.258Z,66.79
2019-03-30T22:49:19.163Z,67.19
2019-03-30T22:51:49.046Z,67.61
2019-03-30T22:54:18.854Z,67.82
2019-03-30T22:56:48.741Z,68.23
2019-03-30T22:59:18.682Z,68.92
2019-03-30T23:01:48.602Z,69.58
2019-03-30T23:04:18.458Z,70.93
2019-03-30T23:06:48.358Z,71.32
2019-03-30T23:09:18.152Z,71.52
2019-03-30T23:11:47.913Z,71.23
2019-03-30T23:14:17.763Z,71.15
2019-03-30T23:16:47.640Z,71.32
2019-03-30T23:19:17.490Z,71.13
2019-03-30T23:21:47.641Z,70.86
2019-03-30T23:24:17.593Z,71.68
2019-03-30T23:26:47.433Z,71.59
2019-03-30T23:29:17.248Z,71.56
2019-03-30T23:31:47.046Z,71.57
2019-03-30T23:34:17.043Z,71.86
2019-03-30T23:36:46.921Z,71.58
2019-03-30T23:39:16.730Z,71.08
2019-03-30T23:41:46.509Z,71.22
2019-03-30T23:44:16.315Z,70.87
2019-03-30T23:46:46.304Z,71.06
2019-03-30T23:49:16.352Z,70.42
2019-03-30T23:51:46.203Z,70.00
2019-03-30T23:54:17.359Z,70.56
2019-03-30T23:56:47.247Z,71.18
2019-03-30T23:59:17.395Z,72.68
